Time;durP1;ratioP1;P1;durP2;ratioP2;P2;SDS_P1;SDS_P2;PMS_P1;PMS_P2;Temp;Humidity;BMP_temperature;BMP_pressure;BME280_temperature;BME280_humidity;BME280_pressure;Samples;Min_cycle;Max_cycle;Signal;HPM_P1;HPM_P2
2021/07/02 00:01:27;;;;;;;3.00;2.15;;;;;;;21.22;54.30;101681.03;4983185;28;20038;-82
2021/07/02 00:03:52;;;;;;;3.22;2.28;;;;;;;21.19;54.28;101669.72;4999353;28;20034;-81
2021/07/02 00:06:17;;;;;;;4.18;2.15;;;;;;;21.19;54.31;101670.59;5016826;28;20022;-81
2021/07/02 00:08:43;;;;;;;2.40;1.85;;;;;;;21.19;54.36;101673.22;4982890;28;20505;-80
2021/07/02 00:11:09;;;;;;;3.42;2.42;;;;;;;21.20;54.38;101674.94;4982953;28;20033;-81
2021/07/02 00:13:34;;;;;;;2.97;2.30;;;;;;;21.17;54.06;101665.38;4982941;28;20052;-81
2021/07/02 00:15:59;;;;;;;5.28;2.83;;;;;;;21.19;54.26;101669.72;4982838;28;20496;-81
2021/07/02 00:18:25;;;;;;;3.60;2.40;;;;;;;21.19;54.23;101667.09;4982746;28;20033;-80
2021/07/02 00:20:50;;;;;;;5.03;2.42;;;;;;;21.20;54.36;101668.84;4982732;28;20076;-81
2021/07/02 00:23:15;;;;;;;2.83;2.20;;;;;;;21.20;54.40;101658.38;4982667;28;20041;-81
2021/07/02 00:25:41;;;;;;;2.97;2.55;;;;;;;21.19;54.29;101665.38;5015136;28;20472;-81
2021/07/02 00:28:07;;;;;;;3.85;2.30;;;;;;;21.20;54.21;101671.47;5015134;28;20040;-82
2021/07/02 00:30:34;;;;;;;3.85;2.55;;;;;;;21.17;54.39;101667.13;4999119;28;20030;-81
2021/07/02 00:33:00;;;;;;;3.65;2.38;;;;;;;21.18;54.53;101663.63;4998827;28;20428;-81
2021/07/02 00:35:25;;;;;;;2.97;2.30;;;;;;;21.16;54.38;101662.75;4997484;28;20029;-81
2021/07/02 00:37:51;;;;;;;3.60;2.42;;;;;;;21.17;54.53;101668.00;5016203;28;20034;-81
2021/07/02 00:40:16;;;;;;;3.38;2.28;;;;;;;21.15;54.47;101658.44;5014842;28;20468;-81
2021/07/02 00:42:42;;;;;;;3.35;2.25;;;;;;;21.20;54.35;101669.69;4998533;28;20165;-81
2021/07/02 00:45:11;;;;;;;3.33;2.20;;;;;;;21.19;54.52;101662.75;4998463;28;20034;-82
2021/07/02 00:47:36;;;;;;;3.30;2.50;;;;;;;21.16;54.53;101654.91;5016153;28;20037;-81
2021/07/02 00:50:04;;;;;;;4.07;2.20;;;;;;;21.15;54.67;101656.66;4976982;28;20432;-81
2021/07/02 00:52:29;;;;;;;3.33;2.30;;;;;;;21.17;54.59;101664.50;4975833;28;20480;-81
2021/07/02 00:54:55;;;;;;;2.63;1.92;;;;;;;21.14;54.77;101654.06;4959482;28;20034;-80
2021/07/02 00:57:21;;;;;;;3.58;2.28;;;;;;;21.15;54.67;101654.06;4976742;28;20134;-80
2021/07/02 00:59:46;;;;;;;3.63;2.30;;;;;;;21.17;54.60;101656.66;4976626;28;20059;-82
2021/07/02 01:02:13;;;;;;;2.83;2.13;;;;;;;21.15;54.53;101651.44;4943555;28;20046;-84
2021/07/02 01:04:39;;;;;;;2.92;1.95;;;;;;;21.15;54.62;101656.66;4976031;28;20034;-81
2021/07/02 01:07:04;;;;;;;4.10;2.20;;;;;;;21.15;54.63;101654.06;4959351;28;20027;-81
2021/07/02 01:09:30;;;;;;;3.63;2.70;;;;;;;21.17;54.52;101656.66;4975724;28;20084;-81
2021/07/02 01:11:58;;;;;;;3.83;2.45;;;;;;;21.14;54.45;101649.72;4959431;28;20039;-82
2021/07/02 01:14:24;;;;;;;3.05;2.15;;;;;;;21.14;54.75;101646.22;4976651;28;20026;-80
2021/07/02 01:16:49;;;;;;;4.40;2.53;;;;;;;21.15;54.71;101643.59;4976588;28;20491;-80
2021/07/02 01:19:15;;;;;;;3.08;2.25;;;;;;;21.16;54.51;101649.69;4967501;28;20035;-80
2021/07/02 01:21:40;;;;;;;2.70;2.17;;;;;;;21.16;54.71;101647.06;4983962;28;20046;-80
2021/07/02 01:24:06;;;;;;;3.03;2.35;;;;;;;21.17;54.72;101652.28;4975738;28;20031;-81
2021/07/02 01:26:32;;;;;;;4.25;2.30;;;;;;;21.12;54.71;101654.09;4978480;28;20019;-80
2021/07/02 01:28:58;;;;;;;3.67;2.40;;;;;;;21.15;54.77;101653.19;4975377;28;20038;-80
2021/07/02 01:31:25;;;;;;;3.20;2.67;;;;;;;21.13;54.74;101645.34;4976591;28;20022;-80
2021/07/02 01:33:50;;;;;;;3.38;2.33;;;;;;;21.13;54.63;101637.50;4976274;28;20077;-81
2021/07/02 01:36:19;;;;;;;4.03;2.80;;;;;;;21.13;54.78;101644.50;4974734;28;20031;-81
2021/07/02 01:38:45;;;;;;;3.88;2.58;;;;;;;21.13;54.99;101637.50;4976575;28;20062;-80
2021/07/02 01:41:10;;;;;;;5.30;2.47;;;;;;;21.13;54.86;101634.88;4974942;28;20535;-81
2021/07/02 01:43:36;;;;;;;3.65;2.35;;;;;;;21.14;54.83;101638.34;4975927;28;20022;-81
2021/07/02 01:46:01;;;;;;;3.03;2.33;;;;;;;21.13;54.71;101637.50;4942517;28;20029;-80
2021/07/02 01:48:27;;;;;;;3.90;2.13;;;;;;;21.14;54.72;101638.34;4948886;28;20125;-81
2021/07/02 01:50:52;;;;;;;3.40;2.38;;;;;;;21.13;54.72;101634.03;4995203;28;20090;-81
2021/07/02 01:53:18;;;;;;;3.13;2.40;;;;;;;21.11;54.84;101634.03;4995269;28;20033;-81
2021/07/02 01:55:43;;;;;;;3.33;2.22;;;;;;;21.13;54.78;101631.41;4995101;28;20103;-80
2021/07/02 01:58:09;;;;;;;4.65;2.53;;;;;;;21.12;54.93;101630.53;4995245;28;20035;-80
2021/07/02 02:00:34;;;;;;;3.15;2.30;;;;;;;21.10;54.78;101627.06;4995233;28;20484;-80
2021/07/02 02:03:00;;;;;;;4.13;2.50;;;;;;;21.11;54.92;101630.56;4993948;28;20038;-80
2021/07/02 02:05:25;;;;;;;4.13;2.40;;;;;;;21.09;55.00;101627.94;4994083;28;20109;-80
2021/07/02 02:07:50;;;;;;;3.88;2.30;;;;;;;21.12;55.06;101633.16;4993671;28;20161;-81
2021/07/02 02:10:16;;;;;;;2.67;2.03;;;;;;;21.11;54.83;101628.78;4977613;28;20040;-80
2021/07/02 02:12:42;;;;;;;5.03;2.40;;;;;;;21.10;54.92;101626.19;4994966;28;20101;-81
2021/07/02 02:15:08;;;;;;;3.85;2.10;;;;;;;21.09;54.91;101634.94;4977484;28;20034;-81
2021/07/02 02:17:34;;;;;;;3.40;2.20;;;;;;;21.10;54.83;101634.03;4995005;28;20041;-81
2021/07/02 02:20:00;;;;;;;3.38;2.20;;;;;;;21.10;55.09;101634.94;4994774;28;20023;-83
2021/07/02 02:22:25;;;;;;;3.67;2.10;;;;;;;21.12;54.87;101637.50;4977424;28;20157;-80
2021/07/02 02:24:51;;;;;;;4.28;2.50;;;;;;;21.11;54.84;101631.41;4993633;28;20034;-80
2021/07/02 02:27:17;;;;;;;4.43;2.30;;;;;;;21.10;54.88;101628.81;4993537;28;20030;-81
2021/07/02 02:29:42;;;;;;;3.53;2.08;;;;;;;21.11;54.87;101625.31;4994706;28;20084;-80
2021/07/02 02:32:08;;;;;;;3.75;2.40;;;;;;;21.10;54.94;101620.94;4993677;28;20072;-81
2021/07/02 02:34:33;;;;;;;3.47;2.28;;;;;;;21.09;54.96;101627.94;4993309;28;20072;-80
2021/07/02 02:36:59;;;;;;;3.95;2.30;;;;;;;21.10;54.80;101631.41;4993198;28;20030;-80
2021/07/02 02:39:25;;;;;;;3.00;2.22;;;;;;;21.09;55.03;101625.31;4994553;28;20536;-88
2021/07/02 02:41:50;;;;;;;3.58;2.42;;;;;;;21.10;54.98;101627.06;4993452;28;20385;-90
2021/07/02 02:44:15;;;;;;;3.03;2.30;;;;;;;21.08;55.07;101621.00;4977229;28;20396;-89
2021/07/02 02:46:41;;;;;;;3.67;2.00;;;;;;;21.10;55.01;101623.56;4977247;28;20089;-89
2021/07/02 02:49:06;;;;;;;3.97;2.20;;;;;;;21.09;54.95;101627.94;4992941;28;20397;-89
2021/07/02 02:51:32;;;;;;;3.13;2.10;;;;;;;21.11;54.86;101623.56;4977204;28;20023;-88
2021/07/02 02:53:57;;;;;;;3.85;1.95;;;;;;;21.10;55.11;101620.94;4976861;28;20030;-90
2021/07/02 02:56:22;;;;;;;2.63;2.00;;;;;;;21.08;54.99;101620.13;4976923;28;20044;-88
2021/07/02 02:58:48;;;;;;;2.53;2.05;;;;;;;21.09;54.87;101627.94;4978189;28;20030;-89
2021/07/02 03:01:13;;;;;;;2.65;2.00;;;;;;;21.08;54.94;101622.75;4977312;28;20551;-89
2021/07/02 03:03:39;;;;;;;2.88;2.03;;;;;;;21.10;54.89;101623.56;4960923;28;20030;-89
2021/07/02 03:06:05;;;;;;;4.95;1.95;;;;;;;21.11;54.96;101625.31;4977017;28;20026;-89
2021/07/02 03:08:30;;;;;;;3.15;1.90;;;;;;;21.10;55.01;101631.41;4976959;28;20034;-89
2021/07/02 03:10:55;;;;;;;3.00;2.03;;;;;;;21.11;54.94;101635.78;4995543;28;20498;-89
2021/07/02 03:13:21;;;;;;;3.22;2.20;;;;;;;21.10;55.25;101631.41;4961117;28;20022;-89
2021/07/02 03:15:46;;;;;;;2.72;1.88;;;;;;;21.08;55.14;101633.22;5001985;28;20030;-88
2021/07/02 03:18:12;;;;;;;2.83;2.13;;;;;;;21.09;55.12;101638.41;4987756;28;20046;-88
2021/07/02 03:20:37;;;;;;;3.35;2.50;;;;;;;21.10;55.02;101639.28;4989288;28;20095;-88
2021/07/02 03:23:03;;;;;;;2.78;2.10;;;;;;;21.10;55.00;101632.31;4987713;28;20026;-88
2021/07/02 03:25:28;;;;;;;4.57;2.13;;;;;;;21.08;55.12;101634.09;4984744;28;20034;-88
2021/07/02 03:27:53;;;;;;;2.80;2.25;;;;;;;21.09;55.13;101638.41;5000963;28;20035;-88
2021/07/02 03:30:19;;;;;;;3.08;2.00;;;;;;;21.08;55.14;101639.31;4989918;28;20428;-88
2021/07/02 03:32:45;;;;;;;2.70;1.77;;;;;;;21.08;55.05;101631.47;5004042;28;20026;-89
2021/07/02 03:35:11;;;;;;;2.85;2.10;;;;;;;21.08;55.17;101633.22;4987430;28;20046;-88
2021/07/02 03:37:36;;;;;;;2.97;2.05;;;;;;;21.09;55.05;101633.19;4999673;28;20420;-89
2021/07/02 03:40:06;;;;;;;3.72;2.13;;;;;;;21.09;54.93;101638.41;5007576;28;20042;-88
2021/07/02 03:42:31;;;;;;;2.97;2.00;;;;;;;21.09;54.86;101643.66;5004386;28;20030;-89
2021/07/02 03:44:57;;;;;;;2.80;1.98;;;;;;;21.08;55.15;101641.06;4986182;28;20036;-88
2021/07/02 03:47:23;;;;;;;3.13;2.17;;;;;;;21.08;55.07;101647.16;4963480;28;20026;-90
2021/07/02 03:49:48;;;;;;;3.28;2.00;;;;;;;21.08;55.06;101643.69;4992369;28;20062;-89
2021/07/02 03:52:14;;;;;;;2.92;2.00;;;;;;;21.07;55.17;101642.78;4976269;28;20035;-89
2021/07/02 03:54:39;;;;;;;2.60;2.15;;;;;;;21.08;55.09;101652.41;4960136;28;20089;-89
2021/07/02 03:57:11;;;;;;;2.92;1.90;;;;;;;21.08;54.99;101657.63;4992411;28;20118;-89
2021/07/02 03:59:47;;;;;;;2.97;1.83;;;;;;;21.10;55.08;101654.97;4992607;28;20026;-90
2021/07/02 04:02:13;;;;;;;3.10;1.90;;;;;;;21.08;54.86;101660.25;4992365;28;20085;-89
2021/07/02 04:04:40;;;;;;;3.63;2.10;;;;;;;21.08;55.18;101662.88;4976186;28;20435;-89
2021/07/02 04:07:07;;;;;;;2.45;1.75;;;;;;;21.08;54.98;101665.47;4992332;28;20054;-90
2021/07/02 04:09:33;;;;;;;2.90;2.00;;;;;;;21.06;55.31;101654.16;4993721;28;20371;-89
2021/07/02 04:12:00;;;;;;;2.33;1.85;;;;;;;21.09;55.13;101655.88;4996115;28;20113;-89
2021/07/02 04:14:26;;;;;;;3.20;2.20;;;;;;;21.09;54.86;101658.50;4996029;28;20388;-89
2021/07/02 04:16:51;;;;;;;2.55;1.77;;;;;;;21.08;55.28;101654.16;4995836;28;20169;-89
2021/07/02 04:19:17;;;;;;;3.15;2.10;;;;;;;21.10;55.04;101650.63;4979831;28;20108;-88
2021/07/02 04:21:42;;;;;;;2.70;2.00;;;;;;;21.11;54.99;101643.63;4995904;28;20491;-89
2021/07/02 04:24:08;;;;;;;2.60;2.00;;;;;;;21.10;55.09;101653.25;4995798;28;20388;-89
2021/07/02 04:26:33;;;;;;;2.85;1.80;;;;;;;21.10;54.98;101653.25;4979537;28;20117;-89
2021/07/02 04:28:58;;;;;;;2.85;2.00;;;;;;;21.12;54.94;101661.06;4963435;28;20033;-89
2021/07/02 04:31:24;;;;;;;5.13;1.92;;;;;;;21.10;55.10;101658.47;4963619;28;20392;-89
2021/07/02 04:33:49;;;;;;;4.28;1.80;;;;;;;21.11;55.00;101659.34;4979483;28;20065;-89
2021/07/02 04:36:15;;;;;;;3.00;2.00;;;;;;;21.11;55.14;101657.59;4979389;28;20112;-89
2021/07/02 04:38:41;;;;;;;2.53;1.85;;;;;;;21.13;54.87;101653.19;4995635;28;20526;-89
2021/07/02 04:41:07;;;;;;;2.83;1.80;;;;;;;21.13;54.99;101652.34;4995614;28;20018;-88
2021/07/02 04:43:33;;;;;;;3.00;2.10;;;;;;;21.13;54.94;101641.88;4979314;28;20034;-89
2021/07/02 04:45:58;;;;;;;1.88;1.67;;;;;;;21.13;55.08;101640.13;4995585;28;20484;-88
2021/07/02 04:48:24;;;;;;;3.17;1.60;;;;;;;21.15;54.78;101647.97;4995211;28;20050;-88
2021/07/02 04:50:49;;;;;;;2.95;2.10;;;;;;;21.17;54.81;101652.28;4963262;28;20093;-89
2021/07/02 04:53:14;;;;;;;2.30;1.80;;;;;;;21.17;54.98;101654.03;4979202;28;20188;-86
2021/07/02 04:55:40;;;;;;;2.30;1.75;;;;;;;21.14;55.11;101654.94;4995332;28;20031;-89
2021/07/02 04:58:06;;;;;;;2.70;1.90;;;;;;;21.12;54.98;101651.47;4963093;28;20026;-90
2021/07/02 05:00:32;;;;;;;4.25;2.15;;;;;;;21.13;55.16;101653.19;4979414;28;20030;-90
2021/07/02 05:02:57;;;;;;;2.38;1.75;;;;;;;21.14;54.93;101654.94;4995420;28;20484;-89
2021/07/02 05:05:23;;;;;;;2.00;1.70;;;;;;;21.14;54.85;101649.72;4979910;28;20117;-90
2021/07/02 05:07:48;;;;;;;2.75;1.80;;;;;;;21.12;54.92;101656.72;4980188;28;20061;-90
2021/07/02 05:10:14;;;;;;;1.77;1.55;;;;;;;21.14;55.06;101654.06;4980477;28;20463;-89
2021/07/02 05:12:39;;;;;;;2.50;1.67;;;;;;;21.13;54.97;101655.81;4979099;28;20030;-89
2021/07/02 05:15:05;;;;;;;2.05;1.63;;;;;;;21.16;55.14;101657.53;4979952;28;20034;-90
2021/07/02 05:17:31;;;;;;;2.58;1.90;;;;;;;21.14;55.01;101660.19;4963311;28;20070;-88
2021/07/02 05:19:56;;;;;;;2.10;1.67;;;;;;;21.14;55.19;101657.56;4979560;28;20130;-88
2021/07/02 05:22:21;;;;;;;1.98;1.60;;;;;;;21.16;54.84;101665.38;4994757;28;20030;-82
2021/07/02 05:24:48;;;;;;;2.15;1.80;;;;;;;21.16;54.77;101657.53;4995009;28;20022;-80
2021/07/02 05:27:14;;;;;;;5.03;2.80;;;;;;;21.21;54.96;101660.97;4978876;28;20026;-87
2021/07/02 05:29:40;;;;;;;5.85;2.80;;;;;;;21.29;54.77;101659.13;5011065;28;20464;-86
2021/07/02 05:32:06;;;;;;;5.88;3.15;;;;;;;21.29;55.09;101658.25;4978541;28;20049;-87
2021/07/02 05:34:32;;;;;;;7.93;2.80;;;;;;;21.26;55.27;101664.41;4978471;28;20088;-85
2021/07/02 05:36:59;;;;;;;3.65;2.40;;;;;;;21.23;55.17;101660.94;4978478;28;20077;-87
2021/07/02 05:39:24;;;;;;;5.72;2.50;;;;;;;21.25;55.00;101670.53;4996192;28;20027;-83
2021/07/02 05:41:50;;;;;;;5.03;2.50;;;;;;;21.27;55.27;101665.25;4978308;28;20042;-88
2021/07/02 05:44:15;;;;;;;4.63;2.90;;;;;;;21.20;55.60;101669.69;4994652;28;20026;-85
2021/07/02 05:46:41;;;;;;;3.67;2.70;;;;;;;21.12;55.53;101667.19;4978156;28;20377;-84
2021/07/02 05:49:06;;;;;;;4.55;2.60;;;;;;;21.05;55.39;101665.50;4978087;28;20493;-86
2021/07/02 05:51:32;;;;;;;5.88;3.20;;;;;;;21.04;55.54;101668.16;4994414;28;20150;-87
2021/07/02 05:53:57;;;;;;;5.40;3.08;;;;;;;21.00;55.76;101675.16;4978280;28;20101;-81
2021/07/02 05:56:28;;;;;;;5.10;3.05;;;;;;;20.93;55.79;101679.59;4994462;28;20037;-87
2021/07/02 05:58:57;;;;;;;4.55;2.50;;;;;;;20.91;55.90;101677.88;4978965;28;20073;-88
2021/07/02 06:01:23;;;;;;;4.30;2.80;;;;;;;20.88;56.03;101676.16;4994193;28;20026;-88
2021/07/02 06:03:49;;;;;;;7.85;2.90;;;;;;;20.91;55.90;101677.88;4994100;28;20022;-86
2021/07/02 06:06:15;;;;;;;4.05;2.70;;;;;;;20.89;55.94;101677.03;4978016;28;20030;-90
2021/07/02 06:08:40;;;;;;;5.97;3.00;;;;;;;20.85;56.11;101688.41;4995212;28;20031;-88
2021/07/02 06:11:06;;;;;;;5.43;3.10;;;;;;;20.84;56.00;101690.16;4995251;28;20091;-88
2021/07/02 06:13:31;;;;;;;7.40;3.30;;;;;;;20.82;56.26;101696.25;4993866;28;20053;-87
2021/07/02 06:15:57;;;;;;;5.28;3.00;;;;;;;20.83;56.43;101687.53;4993688;28;20026;-88
2021/07/02 06:18:22;;;;;;;2.70;2.50;;;;;;;20.81;56.23;101691.91;4977863;28;20106;-88
2021/07/02 06:20:52;;;;;;;4.55;2.70;;;;;;;20.77;56.47;101698.91;4977798;28;20400;-87
2021/07/02 06:23:19;;;;;;;4.35;3.00;;;;;;;20.79;56.74;101698.91;4993814;28;20031;-86
2021/07/02 06:25:44;;;;;;;4.30;2.90;;;;;;;20.78;56.80;101687.59;4993584;28;20491;-86
2021/07/02 06:28:10;;;;;;;4.60;2.75;;;;;;;20.78;56.26;101694.59;4977421;28;20030;-87
2021/07/02 06:30:35;;;;;;;7.45;3.30;;;;;;;20.79;56.80;101693.69;4993502;28;20033;-87
2021/07/02 06:33:01;;;;;;;8.77;3.10;;;;;;;20.77;56.68;101693.69;4976599;28;20034;-85
2021/07/02 06:35:26;;;;;;;7.80;3.25;;;;;;;20.76;56.72;101697.19;4993556;28;20031;-87
2021/07/02 06:37:51;;;;;;;6.25;3.45;;;;;;;20.77;56.78;101698.06;4961235;28;20027;-87
2021/07/02 06:40:19;;;;;;;9.20;3.88;;;;;;;20.78;56.80;101699.81;4961095;28;20498;-87
2021/07/02 06:42:44;;;;;;;9.15;3.80;;;;;;;20.78;56.86;101703.28;4994388;28;20100;-86
2021/07/02 06:45:11;;;;;;;11.50;4.20;;;;;;;20.77;56.83;101701.53;4994209;28;20473;-84
2021/07/02 06:47:52;;;;;;;7.63;3.88;;;;;;;20.79;56.90;101705.00;4977663;28;20452;-88
2021/07/02 06:50:17;;;;;;;7.30;4.20;;;;;;;20.81;56.76;101710.22;5012008;28;20053;-86
2021/07/02 06:52:43;;;;;;;11.15;3.88;;;;;;;20.80;56.99;101717.22;5014105;28;20129;-82
2021/07/02 06:55:09;;;;;;;9.40;4.28;;;;;;;20.81;56.86;101712.84;4964120;28;20152;-90
2021/07/02 06:57:34;;;;;;;9.30;4.72;;;;;;;20.81;56.90;101713.72;5012979;28;20402;-88
2021/07/02 07:00:03;;;;;;;8.45;4.70;;;;;;;20.81;56.88;101710.22;4996934;28;20036;-88
2021/07/02 07:02:28;;;;;;;10.48;5.45;;;;;;;20.79;56.80;101710.25;4980689;28;20476;-89
2021/07/02 07:04:54;;;;;;;8.07;5.63;;;;;;;20.79;56.77;101709.38;4980077;28;20053;-88
2021/07/02 07:07:20;;;;;;;7.57;5.63;;;;;;;20.75;56.70;101704.19;4980310;28;20026;-90
2021/07/02 07:09:45;;;;;;;12.27;6.13;;;;;;;20.80;56.49;101713.75;4996778;28;20468;-90
2021/07/02 07:12:11;;;;;;;8.25;6.00;;;;;;;20.78;56.51;101716.38;4996580;28;20465;-92
2021/07/02 07:14:36;;;;;;;11.07;6.22;;;;;;;20.83;56.68;101714.56;4980211;28;20041;-90
2021/07/02 07:17:04;;;;;;;10.40;6.30;;;;;;;20.82;56.43;101720.69;4963962;28;20038;-87
2021/07/02 07:19:30;;;;;;;11.25;7.13;;;;;;;20.79;56.43;101725.06;4996679;28;20053;-89
2021/07/02 07:21:56;;;;;;;14.68;7.93;;;;;;;20.81;56.18;101724.19;4980078;28;20029;-86
2021/07/02 07:24:22;;;;;;;13.95;7.78;;;;;;;20.87;56.12;101726.75;4996287;28;20052;-91
2021/07/02 07:26:49;;;;;;;12.00;8.00;;;;;;;20.89;55.85;101729.34;4981040;28;20104;-93
2021/07/02 07:29:15;;;;;;;12.43;8.35;;;;;;;20.85;55.81;101732.88;4996628;28;20018;-92
2021/07/02 07:31:40;;;;;;;13.57;8.43;;;;;;;20.88;55.81;101735.44;4980350;28;20040;-89
2021/07/02 07:34:06;;;;;;;12.25;8.15;;;;;;;20.99;55.64;101733.63;4964280;28;20075;-91
2021/07/02 07:36:32;;;;;;;14.73;8.80;;;;;;;21.00;55.51;101737.97;4964656;28;20399;-91
2021/07/02 07:38:58;;;;;;;13.82;8.38;;;;;;;20.96;55.51;101729.25;4983464;28;20480;-89
2021/07/02 07:41:24;;;;;;;14.23;8.02;;;;;;;20.93;55.61;101734.53;4992844;28;20034;-93
2021/07/02 07:43:50;;;;;;;13.00;8.02;;;;;;;20.88;55.80;101738.97;5009684;28;20101;-90
2021/07/02 07:46:16;;;;;;;11.55;7.63;;;;;;;20.83;55.75;101729.41;5008613;28;20075;-91
2021/07/02 07:48:41;;;;;;;11.27;7.15;;;;;;;20.89;55.66;101742.44;4985162;28;20046;-91
2021/07/02 07:51:19;;;;;;;10.73;6.82;;;;;;;20.97;55.45;101745.84;4968073;28;20053;-91
2021/07/02 07:53:45;;;;;;;11.48;7.05;;;;;;;21.10;55.03;101739.63;4985974;28;20033;-90
2021/07/02 07:56:10;;;;;;;12.38;6.82;;;;;;;21.17;54.77;101740.41;5016989;28;20096;-91
2021/07/02 07:58:36;;;;;;;9.63;5.82;;;;;;;21.23;54.63;101752.56;4967834;28;20033;-91
2021/07/02 08:01:01;;;;;;;8.30;5.93;;;;;;;21.27;54.87;101754.25;4983737;28;20045;-92
2021/07/02 08:03:27;;;;;;;7.93;5.07;;;;;;;21.42;54.59;101748.91;4983921;28;20026;-92
2021/07/02 08:05:52;;;;;;;12.13;6.10;;;;;;;21.38;54.59;101752.41;4967513;28;20029;-86
2021/07/02 08:08:17;;;;;;;9.52;5.75;;;;;;;21.55;53.99;101745.25;4983046;28;20021;-86
2021/07/02 08:10:43;;;;;;;12.57;5.90;;;;;;;21.54;53.91;101743.53;4982970;28;20036;-87
2021/07/02 08:13:08;;;;;;;9.40;5.28;;;;;;;21.48;54.05;101750.59;4967000;28;20033;-86
2021/07/02 08:15:34;;;;;;;12.20;5.40;;;;;;;21.47;53.94;101751.47;5015756;28;20030;-86
2021/07/02 08:17:59;;;;;;;9.32;5.30;;;;;;;21.50;54.51;101757.53;4983081;28;20030;-79
2021/07/02 08:20:25;;;;;;;11.73;5.50;;;;;;;21.52;54.32;101747.91;4982776;28;20041;-84
2021/07/02 08:22:50;;;;;;;10.38;5.50;;;;;;;21.50;54.66;101759.28;4983111;28;20037;-78
2021/07/02 08:25:15;;;;;;;7.95;4.88;;;;;;;21.47;54.50;101760.22;4998940;28;20061;-79
2021/07/02 08:30:25;;;;;;;9.20;5.15;;;;;;;21.47;54.28;101768.06;5017591;28;20148;-77
2021/07/02 08:32:51;;;;;;;9.55;5.25;;;;;;;;;;5000382;28;20688;-78
2021/07/02 08:35:21;;;;;;;9.10;5.25;;;;;;;21.59;54.36;101772.28;4999554;28;20117;-79
2021/07/02 08:37:47;;;;;;;11.43;5.75;;;;;;;21.52;54.84;101776.72;5015058;28;20025;-79
2021/07/02 08:40:13;;;;;;;9.10;5.65;;;;;;;21.42;54.78;101774.22;4982645;28;20034;-79
2021/07/02 08:42:38;;;;;;;10.20;6.03;;;;;;;21.33;54.82;101780.38;4998736;28;20032;-78
2021/07/02 08:45:04;;;;;;;14.82;7.57;;;;;;;21.28;54.51;101771.72;4982338;28;20034;-78
2021/07/02 08:47:30;;;;;;;11.25;7.15;;;;;;;21.40;54.62;101778.56;4982232;28;20064;-78
2021/07/02 08:49:56;;;;;;;10.48;8.70;;;;;;;21.68;53.68;101766.06;4982227;28;20082;-78
2021/07/02 08:52:21;;;;;;;13.90;8.07;;;;;;;22.04;52.64;101769.13;5015981;28;20044;-78
2021/07/02 08:54:46;;;;;;;16.08;9.32;;;;;;;22.07;52.28;101777.78;4982284;28;20478;-79
2021/07/02 08:57:12;;;;;;;14.90;9.52;;;;;;;21.97;52.49;101784.03;4965016;28;20456;-77
2021/07/02 08:59:37;;;;;;;17.27;10.13;;;;;;;22.29;51.84;101780.16;4966055;28;20064;-79
2021/07/02 09:02:03;;;;;;;16.77;10.35;;;;;;;22.63;50.39;101784.91;4998506;28;20041;-77
2021/07/02 09:04:35;;;;;;;14.65;10.30;;;;;;;22.63;50.70;101777.91;4982048;28;20388;-79
2021/07/02 09:07:05;;;;;;;13.50;10.40;;;;;;;22.91;49.62;101780.94;4998167;28;20476;-79
2021/07/02 09:09:57;;;;;;;17.83;9.70;;;;;;;22.77;49.50;101789.00;5014540;28;20330;-79
2021/07/02 09:12:35;;;;;;;15.82;9.70;;;;;;;22.32;50.18;101794.09;4998233;28;20033;-77
2021/07/02 09:15:12;;;;;;;12.80;9.75;;;;;;;22.53;49.82;101794.66;5014387;28;20041;-80
2021/07/02 09:17:53;;;;;;;14.75;9.57;;;;;;;22.66;49.86;101784.84;5015579;28;20128;-80
2021/07/02 09:20:25;;;;;;;15.75;9.00;;;;;;;22.44;50.57;101787.78;4998525;28;20030;-91
2021/07/02 09:22:56;;;;;;;13.77;9.40;;;;;;;22.22;50.72;101787.25;4982987;28;20068;-83
2021/07/02 09:25:33;;;;;;;19.85;8.65;;;;;;;22.33;50.53;101793.19;4998019;28;20076;-88
2021/07/02 09:28:14;;;;;;;17.88;9.27;;;;;;;22.34;50.88;101794.94;4998232;28;20022;-90
2021/07/02 09:30:45;;;;;;;10.52;9.02;;;;;;;22.65;49.90;101793.63;5015685;28;20028;-86
2021/07/02 09:33:23;;;;;;;14.00;9.63;;;;;;;22.58;49.70;101787.56;5014334;28;20022;-89
2021/07/02 09:35:52;;;;;;;13.07;9.48;;;;;;;22.36;50.34;101787.03;5013951;28;20032;-87
2021/07/02 09:38:19;;;;;;;14.32;9.60;;;;;;;22.27;50.47;101790.66;4998250;28;20026;-87
2021/07/02 09:40:48;;;;;;;11.13;8.75;;;;;;;22.24;50.91;101800.34;5014137;28;20104;-85
2021/07/02 09:43:15;;;;;;;14.20;9.00;;;;;;;22.28;50.57;101797.66;4982170;28;20026;-88
2021/07/02 09:45:52;;;;;;;14.40;9.00;;;;;;;22.00;50.56;101794.50;4981965;28;20051;-88
2021/07/02 09:48:20;;;;;;;12.50;9.10;;;;;;;22.06;50.94;101796.16;5015240;28;20030;-87
2021/07/02 09:50:52;;;;;;;13.25;8.82;;;;;;;22.08;50.72;101799.63;4997833;28;20057;-83
2021/07/02 09:53:28;;;;;;;17.07;8.63;;;;;;;22.09;50.49;101806.63;4997908;28;20026;-87
2021/07/02 09:55:56;;;;;;;17.80;8.43;;;;;;;21.88;50.76;101805.13;5013943;28;20022;-85
2021/07/02 09:58:36;;;;;;;15.15;8.40;;;;;;;21.91;50.24;101807.72;4981524;28;20475;-85
2021/07/02 10:01:03;;;;;;;13.25;8.68;;;;;;;21.93;50.45;101814.66;4997524;28;20021;-86
2021/07/02 10:03:34;;;;;;;12.80;8.82;;;;;;;22.15;50.01;101817.03;4997570;28;20048;-85
2021/07/02 10:06:02;;;;;;;13.02;8.45;;;;;;;22.26;49.75;101819.53;4997579;28;20014;-84
2021/07/02 10:08:30;;;;;;;12.95;8.48;;;;;;;22.22;49.44;101821.31;5013588;28;20100;-85
2021/07/02 10:10:57;;;;;;;11.85;8.55;;;;;;;22.20;49.57;101820.44;5013745;28;20018;-85
2021/07/02 10:13:27;;;;;;;13.40;8.90;;;;;;;22.12;49.73;101822.28;5015105;28;20014;-85
2021/07/02 10:15:54;;;;;;;9.73;8.07;;;;;;;22.18;49.78;101825.69;5013661;28;20022;-85
2021/07/02 10:18:20;;;;;;;11.40;8.40;;;;;;;22.15;49.73;101835.38;4997654;28;20052;-86
2021/07/02 10:20:49;;;;;;;9.65;7.85;;;;;;;22.02;49.54;101824.19;5014820;28;20113;-84
2021/07/02 10:23:28;;;;;;;13.70;8.32;;;;;;;21.97;49.80;101832.09;4981322;28;20025;-84
2021/07/02 10:25:56;;;;;;;9.75;8.25;;;;;;;21.76;50.01;101833.22;5013703;28;20022;-85
2021/07/02 10:28:23;;;;;;;11.95;8.60;;;;;;;21.86;50.24;101831.38;5013747;28;20028;-87
2021/07/02 10:30:49;;;;;;;12.27;7.90;;;;;;;22.07;49.56;101832.84;4964991;28;20034;-87
2021/07/02 10:33:18;;;;;;;13.05;7.82;;;;;;;21.99;49.74;101837.28;4997335;28;20026;-87
2021/07/02 10:35:46;;;;;;;11.75;8.30;;;;;;;21.85;49.92;101836.63;4996800;28;20026;-88
2021/07/02 10:38:12;;;;;;;12.98;8.73;;;;;;;21.97;49.83;101832.09;4997587;28;20034;-87
2021/07/02 10:40:40;;;;;;;9.85;7.47;;;;;;;21.97;49.78;101832.09;4996997;28;20033;-86
2021/07/02 10:43:08;;;;;;;12.63;8.20;;;;;;;22.05;49.80;101836.38;4996981;28;20026;-86
2021/07/02 10:45:35;;;;;;;11.13;7.70;;;;;;;22.07;49.49;101835.47;5013090;28;20085;-87
2021/07/02 10:48:01;;;;;;;9.50;7.80;;;;;;;22.00;49.86;101840.81;4996825;28;20460;-86
2021/07/02 10:50:41;;;;;;;10.52;7.82;;;;;;;21.84;49.57;101845.34;4977176;28;20046;-86
2021/07/02 10:53:27;;;;;;;9.82;7.38;;;;;;;21.93;49.65;101838.25;4993594;28;20084;-86
2021/07/02 10:55:53;;;;;;;11.27;8.00;;;;;;;21.97;49.77;101841.69;4993574;28;20050;-87
2021/07/02 10:58:21;;;;;;;11.02;7.50;;;;;;;22.01;49.60;101837.28;4993494;28;20520;-86
2021/07/02 11:01:07;;;;;;;11.32;7.65;;;;;;;21.94;49.92;101850.47;4993201;28;20109;-89
2021/07/02 11:03:33;;;;;;;11.50;7.75;;;;;;;22.03;49.40;101841.63;4993535;28;20485;-86
2021/07/02 11:06:27;;;;;;;11.48;7.65;;;;;;;22.05;49.73;101839.00;4993184;28;20166;-86
2021/07/02 11:08:53;;;;;;;13.02;8.43;;;;;;;22.07;49.42;101834.59;4992746;28;20476;-87
2021/07/02 11:11:18;;;;;;;11.02;8.23;;;;;;;22.02;50.09;101839.91;4993271;28;20034;-87
2021/07/02 11:14:08;;;;;;;11.23;7.85;;;;;;;21.95;50.03;101835.63;4960957;28;20030;-87
2021/07/02 11:16:34;;;;;;;10.68;8.07;;;;;;;21.86;50.31;101840.94;4994575;28;20505;-88
2021/07/02 11:19:23;;;;;;;11.95;8.23;;;;;;;21.87;49.95;101840.94;4976797;28;20073;-89
2021/07/02 11:22:27;;;;;;;10.10;7.38;;;;;;;22.05;49.38;101837.22;4993286;28;20038;-88
2021/07/02 11:25:15;;;;;;;13.02;7.95;;;;;;;22.04;49.64;101834.66;5009619;28;20134;-88
2021/07/02 11:27:52;;;;;;;10.27;7.80;;;;;;;22.03;49.66;101838.13;4993256;28;20023;-88